createdAt,value
2022-08-07T00:04:01.026Z,11.95
2022-08-07T00:09:16.930Z,11.84
2022-08-07T00:14:31.658Z,11.78
2022-08-07T00:20:02.539Z,11.74
2022-08-07T00:25:00.573Z,11.62
2022-08-07T00:30:21.721Z,11.55
2022-08-07T00:35:31.757Z,11.49
2022-08-07T00:40:40.834Z,11.40
2022-08-07T00:45:46.598Z,11.38
2022-08-07T00:50:51.750Z,11.41
2022-08-07T00:56:02.185Z,11.43
2022-08-07T01:01:08.478Z,11.45
2022-08-07T01:06:13.849Z,11.43
2022-08-07T01:12:04.580Z,11.38
2022-08-07T01:16:49.569Z,11.31
2022-08-07T01:21:55.944Z,11.28
2022-08-07T01:27:02.293Z,11.27
2022-08-07T01:32:12.537Z,11.27
2022-08-07T01:37:19.070Z,11.27
2022-08-07T01:42:39.848Z,11.28
2022-08-07T01:48:18.893Z,11.29
2022-08-07T01:53:21.697Z,11.31
2022-08-07T01:58:49.110Z,11.26
2022-08-07T02:04:28.463Z,11.21
2022-08-07T02:09:52.745Z,11.14
2022-08-07T02:15:01.101Z,11.10
2022-08-07T02:20:17.197Z,11.12
2022-08-07T02:26:10.429Z,11.12
2022-08-07T02:30:52.820Z,11.14
2022-08-07T02:36:29.456Z,11.15
2022-08-07T02:41:25.654Z,11.17
2022-08-07T02:46:46.702Z,11.15
2022-08-07T02:52:02.009Z,11.13
2022-08-07T02:57:15.266Z,11.12
2022-08-07T03:02:20.825Z,11.12
2022-08-07T03:07:58.981Z,11.10
2022-08-07T03:12:53.488Z,11.05
2022-08-07T03:18:00.328Z,10.99
2022-08-07T03:23:05.858Z,10.97
2022-08-07T03:28:37.996Z,10.98
2022-08-07T03:33:47.374Z,11.01
2022-08-07T03:38:56.428Z,11.06
2022-08-07T03:44:02.453Z,11.07
2022-08-07T03:49:10.144Z,11.17
2022-08-07T03:54:36.461Z,11.24
2022-08-07T03:59:46.579Z,11.31
2022-08-07T04:05:12.869Z,11.33
2022-08-07T04:10:19.463Z,11.34
2022-08-07T04:15:24.095Z,11.42
2022-08-07T04:20:29.071Z,11.56
2022-08-07T04:25:40.986Z,11.71
2022-08-07T04:30:56.791Z,11.86
2022-08-07T04:36:02.180Z,12.01
2022-08-07T04:41:18.226Z,12.14
2022-08-07T04:46:35.868Z,12.31
2022-08-07T04:52:03.780Z,12.47
2022-08-07T04:58:11.707Z,12.69
2022-08-07T05:04:06.724Z,12.97
2022-08-07T05:09:02.344Z,13.22
2022-08-07T05:14:55.529Z,13.50
2022-08-07T05:20:09.455Z,13.79
2022-08-07T05:25:25.637Z,14.09
2022-08-07T05:30:43.927Z,14.41
2022-08-07T05:35:55.134Z,14.72
2022-08-07T05:41:01.917Z,14.99
2022-08-07T05:46:20.345Z,15.32
2022-08-07T05:51:31.421Z,15.73
2022-08-07T05:56:40.791Z,16.07
2022-08-07T06:01:47.137Z,16.26
2022-08-07T06:06:56.701Z,16.59
2022-08-07T06:12:09.198Z,17.01
2022-08-07T06:17:16.879Z,17.42
2022-08-07T06:22:27.130Z,17.74
2022-08-07T06:27:59.657Z,18.01
2022-08-07T06:32:57.195Z,18.31
2022-08-07T06:38:02.098Z,18.61
2022-08-07T06:43:21.669Z,18.89
2022-08-07T06:48:26.722Z,19.21
2022-08-07T06:55:27.153Z,19.44
2022-08-07T07:00:11.415Z,19.64
2022-08-07T07:04:32.923Z,19.91
2022-08-07T07:09:38.894Z,20.17
2022-08-07T07:15:08.578Z,20.50
2022-08-07T07:20:58.219Z,20.67
2022-08-07T07:26:35.417Z,20.62
2022-08-07T07:31:44.490Z,20.63
2022-08-07T07:36:54.233Z,20.71
2022-08-07T07:42:12.969Z,20.82
2022-08-07T07:47:23.900Z,21.28
2022-08-07T07:52:33.402Z,21.55
2022-08-07T07:57:52.281Z,21.67
2022-08-07T08:03:16.423Z,21.39
2022-08-07T08:08:34.372Z,21.35
2022-08-07T08:13:53.340Z,21.81
2022-08-07T08:19:17.260Z,21.78
2022-08-07T08:24:57.165Z,22.02
2022-08-07T08:30:17.374Z,21.91
2022-08-07T08:35:28.804Z,21.91
2022-08-07T08:40:54.595Z,22.53
2022-08-07T08:46:22.083Z,23.18
2022-08-07T08:52:12.580Z,23.42
2022-08-07T08:57:38.941Z,23.51
2022-08-07T09:03:48.031Z,23.72
2022-08-07T09:09:13.388Z,24.00
2022-08-07T09:14:59.994Z,23.94
2022-08-07T09:21:13.824Z,24.32
2022-08-07T09:27:11.988Z,24.45
2022-08-07T09:32:26.695Z,25.09
2022-08-07T09:38:10.400Z,25.01
2022-08-07T09:44:03.565Z,25.24
2022-08-07T09:50:02.459Z,25.09
2022-08-07T09:55:28.923Z,24.53
2022-08-07T10:01:51.246Z,25.37
2022-08-07T10:07:24.168Z,26.35
2022-08-07T10:13:05.870Z,25.88
2022-08-07T10:18:39.995Z,25.05
2022-08-07T10:24:05.311Z,24.92
2022-08-07T10:29:51.731Z,25.80
2022-08-07T10:35:16.617Z,26.10
2022-08-07T10:40:53.213Z,26.65
2022-08-07T10:46:26.616Z,27.17
2022-08-07T10:52:13.497Z,27.41
2022-08-07T10:58:17.629Z,26.79
2022-08-07T11:04:05.425Z,26.13
2022-08-07T11:10:09.345Z,25.70
2022-08-07T11:15:01.229Z,25.50
2022-08-07T11:20:20.181Z,25.57
2022-08-07T11:25:50.015Z,26.26
2022-08-07T11:31:18.490Z,26.63
2022-08-07T11:36:31.240Z,26.60
2022-08-07T11:42:03.351Z,26.48
2022-08-07T11:47:39.099Z,26.67
2022-08-07T11:53:26.073Z,26.47
2022-08-07T11:58:50.795Z,26.81
2022-08-07T12:04:18.038Z,26.50
2022-08-07T12:10:02.156Z,26.07
2022-08-07T12:15:46.714Z,25.70
2022-08-07T12:20:57.012Z,25.23
2022-08-07T12:26:29.054Z,24.80
2022-08-07T12:32:03.753Z,24.65
2022-08-07T12:37:16.909Z,24.54
2022-08-07T12:42:32.069Z,24.58
2022-08-07T12:48:05.048Z,24.50
2022-08-07T12:54:02.794Z,24.01
2022-08-07T12:59:37.084Z,23.88
2022-08-07T13:06:04.610Z,23.82
2022-08-07T13:11:17.902Z,23.73
2022-08-07T13:16:46.871Z,23.81
2022-08-07T13:22:35.327Z,23.91
2022-08-07T13:28:12.864Z,24.24
2022-08-07T13:34:32.661Z,24.52
2022-08-07T13:40:34.846Z,25.20
2022-08-07T13:46:20.838Z,26.15
2022-08-07T13:51:00.119Z,26.06
2022-08-07T13:56:07.465Z,25.45
2022-08-07T14:01:21.927Z,25.13
2022-08-07T14:06:35.148Z,24.96
2022-08-07T14:11:53.281Z,24.82
2022-08-07T14:17:32.052Z,24.86
2022-08-07T14:22:35.858Z,24.84
2022-08-07T14:28:21.087Z,24.49
2022-08-07T14:33:23.407Z,24.22
2022-08-07T14:38:39.306Z,24.05
2022-08-07T14:44:15.671Z,23.94
2022-08-07T14:49:57.187Z,23.92
2022-08-07T14:55:17.437Z,23.93
2022-08-07T15:00:48.809Z,24.04
2022-08-07T15:06:09.050Z,23.93
2022-08-07T15:12:08.231Z,24.11
2022-08-07T15:17:20.338Z,23.95
2022-08-07T15:22:51.602Z,23.75
2022-08-07T15:28:33.093Z,23.68
2022-08-07T15:33:44.566Z,24.42
2022-08-07T15:44:32.574Z,27.82
2022-08-07T15:56:02.125Z,27.22
2022-08-07T16:01:03.063Z,26.39
2022-08-07T16:06:10.023Z,25.50
2022-08-07T16:11:40.142Z,25.60
2022-08-07T16:18:02.313Z,26.18
2022-08-07T16:23:13.546Z,26.85
2022-08-07T16:30:08.755Z,26.32
2022-08-07T16:34:39.282Z,25.62
2022-08-07T16:40:37.232Z,24.89
2022-08-07T16:47:13.042Z,24.39
2022-08-07T16:52:51.513Z,24.75
2022-08-07T16:58:20.886Z,24.73
2022-08-07T17:04:00.370Z,24.73
2022-08-07T17:10:05.231Z,24.62
2022-08-07T17:15:04.599Z,24.45
2022-08-07T17:20:40.541Z,24.04
2022-08-07T17:26:24.249Z,23.55
2022-08-07T17:32:02.331Z,23.11
2022-08-07T17:38:11.364Z,22.73
2022-08-07T17:44:03.256Z,22.31
2022-08-07T17:50:04.052Z,21.88
2022-08-07T17:55:55.757Z,21.49
2022-08-07T18:01:36.765Z,21.12
2022-08-07T18:07:20.747Z,20.83
2022-08-07T18:13:16.403Z,20.58
2022-08-07T18:21:03.958Z,20.36
2022-08-07T18:25:23.885Z,20.09
2022-08-07T18:31:07.535Z,19.79
2022-08-07T18:36:41.093Z,19.58
2022-08-07T18:42:45.909Z,19.37
2022-08-07T18:50:31.880Z,19.12
2022-08-07T18:55:40.922Z,18.91
2022-08-07T19:02:18.107Z,18.70
2022-08-07T19:07:36.086Z,18.44
2022-08-07T19:13:44.379Z,18.30
2022-08-07T19:19:31.831Z,18.15
2022-08-07T19:24:52.197Z,17.98
2022-08-07T19:31:00.765Z,17.90
2022-08-07T19:35:33.428Z,17.80
2022-08-07T19:40:49.375Z,17.65
2022-08-07T19:46:07.575Z,17.50
2022-08-07T19:51:50.729Z,17.36
2022-08-07T19:57:51.608Z,17.24
2022-08-07T20:02:52.300Z,17.14
2022-08-07T20:08:15.455Z,17.02
2022-08-07T20:13:56.734Z,16.92
2022-08-07T20:19:10.521Z,16.83
2022-08-07T20:24:28.909Z,16.73
2022-08-07T20:29:58.400Z,16.60
2022-08-07T20:35:16.075Z,16.56
2022-08-07T20:40:31.421Z,16.49
2022-08-07T20:46:27.696Z,16.45
2022-08-07T20:51:09.374Z,16.49
2022-08-07T20:56:20.207Z,16.49
2022-08-07T21:01:45.829Z,16.47
2022-08-07T21:07:03.995Z,16.51
2022-08-07T21:12:15.081Z,16.52
2022-08-07T21:18:03.984Z,16.51
2022-08-07T21:22:55.052Z,16.51
2022-08-07T21:28:49.324Z,16.50
2022-08-07T21:34:08.851Z,16.43
2022-08-07T21:39:47.300Z,16.41
2022-08-07T21:46:08.776Z,16.35
2022-08-07T21:50:54.487Z,16.32
2022-08-07T21:56:35.862Z,16.36
2022-08-07T22:02:11.050Z,16.38
2022-08-07T22:07:35.736Z,16.35
2022-08-07T22:13:03.829Z,16.31
2022-08-07T22:18:26.314Z,16.24
2022-08-07T22:24:09.855Z,16.18
2022-08-07T22:29:48.136Z,16.09
2022-08-07T22:35:00.738Z,16.04
2022-08-07T22:40:21.511Z,15.96
2022-08-07T22:46:21.185Z,15.86
2022-08-07T22:51:43.659Z,15.85
2022-08-07T22:57:33.548Z,15.82
2022-08-07T23:03:58.919Z,15.80
2022-08-07T23:10:03.462Z,15.81
2022-08-07T23:16:05.401Z,15.78
2022-08-07T23:21:16.262Z,15.65
2022-08-07T23:26:26.671Z,15.52
2022-08-07T23:34:20.332Z,15.51
2022-08-07T23:37:32.041Z,15.52
2022-08-07T23:43:16.974Z,15.47
2022-08-07T23:49:05.460Z,15.28
2022-08-07T23:54:52.118Z,15.11
